Argenta, Texas
Current Conditions -  °F | °C
As of 5:35 PM on Thursday 27 Nov 2014 (Local Time) from KRBO Reporting Station
Clear Clear  
Wind Chill: 64°   Ceiling: Unl
Heat Index: 64°   Visibility: 10mi
Dew Point: 55°   Wind: 10mph
Humidity: 72%   Direction: 80°E
Pressure: 30.39"   Gusts: NA
Location:  28.0654°N, 97.7489°W
Report Text: KRBO 272335Z AUTO 08009KT 10SM CLR 18/13 A3039 RMK AO2 T01780127
Loading
Personal Weather Stations






























Interactive Weather Map New forecast layout! Learn more

10-Day Weather Forecast

Advertisements
Track Severe Weather on mobile